الصفحة الرئيسية
METAR-TAF:

METAR-TAF

مطار :

كيتاكيوشو, اليابان

دائرة عرض: 33-50N, خط طول: 130-57E, ارتفاع: 3 متر

مراقبة الطقس الحالي

تاريخ ووقت الإصدار 23 دقيقة قبل الساعة 05:00UTC
ريح 7 عقدة من الشرق/الجنوب الشرقي
درجة الحرارة 27°درجة مئوية
الرطوبة 89%
ضغط 1013 hPa
الرؤية 10 كم أو أكثر
غيوم قليلة على ارتفاع 500 قدم
غيوم متفرقة على ارتفاع 1500 قدم
غيوم مفككة على ارتفاع 4000 قدم

METAR: RJFR 160500Z 11007KT 9999 FEW005 SCT015 BKN040 27/25 Q1013

زمن: 14:23 (05:23 UTC)

توقعات

تاريخ ووقت الإصدار 2ساعات و 13 دقيقة قبل الساعة 03:10UTC
التوقعات صالحة من16 الساعة 03 UTC إلى 17 الساعة 06 UTC
ريح 5 عقدة من الجنوب/الجنوب الشرقي
الرؤية: 8000 متر
غيوم قليلة على ارتفاع 500 قدم
غيوم متفرقة على ارتفاع 1000 قدم
غيوم مفككة على ارتفاع 1500 قدم
زخات من الأمطار الخفيفة
مؤقت
من 16 الساعة 03 UTC إلى 16 الساعة 06 UTC
غيوم قليلة على ارتفاع 300 قدم
غيوم متفرقة على ارتفاع 500 قدم
غيوم مفككة على ارتفاع 800 قدم
أصبح
من 17 الساعة 00 UTC إلى 17 الساعة 03 UTC
ريح 8 عقدة من الشمال

TAF: RJFR 160310Z 1603/1706 16005KT 8000 -SHRA FEW005 SCT010 BKN015 TEMPO 1603/1606 FEW003 SCT005 BKN008 BECMG 1700/1703 35008KT

أرصاد الطقس والتوقعات من أكثر من 4000 مطار (تقارير الطقس للمطار METAR والتنبؤ بالطقس بالمطارTAF).

المحطات المتاحة هي النقط الصفراء والحمراء على الخريطة.

حرك المؤشر فوق النقطة لمعرفة اسم المحطة.

ثم انقر لمعرفة أرصاد وتوقعات الطقس.

لتغيير الخارطة: اضغط على الأزرار الخضراء مع رمز الصليب الأسود للتكبير. على الزر الأخضر مع شرطة للتصغير، أو على الأسهم الخضراء للخرائط المجاورة.


METAR-TAF: